sensor_id;sensor_type;location;lat;lon;timestamp;pressure;altitude;pressure_sealevel;temperature;humidity
6094;BME280;19964;42.060;24.700;2024-03-02T00:01:25;96994.66;;;7.94;100.00
6094;BME280;19964;42.060;24.700;2024-03-02T00:03:52;96992.94;;;7.76;100.00
6094;BME280;19964;42.060;24.700;2024-03-02T00:06:20;97002.06;;;7.90;100.00
6094;BME280;19964;42.060;24.700;2024-03-02T00:08:49;96914.66;;;7.59;100.00
6094;BME280;19964;42.060;24.700;2024-03-02T00:11:16;96992.59;;;8.14;100.00
6094;BME280;19964;42.060;24.700;2024-03-02T00:13:45;96990.56;;;8.16;100.00
6094;BME280;19964;42.060;24.700;2024-03-02T00:16:12;96999.94;;;8.29;100.00
6094;BME280;19964;42.060;24.700;2024-03-02T00:18:41;96994.34;;;8.32;100.00
6094;BME280;19964;42.060;24.700;2024-03-02T00:21:09;96992.56;;;8.32;100.00
6094;BME280;19964;42.060;24.700;2024-03-02T00:23:37;96999.38;;;8.27;100.00
6094;BME280;19964;42.060;24.700;2024-03-02T00:26:05;97010.53;;;8.09;100.00
6094;BME280;19964;42.060;24.700;2024-03-02T00:28:34;97009.84;;;8.13;100.00
6094;BME280;19964;42.060;24.700;2024-03-02T00:31:03;96984.19;;;8.07;100.00
6094;BME280;19964;42.060;24.700;2024-03-02T00:33:32;97005.38;;;8.09;100.00
6094;BME280;19964;42.060;24.700;2024-03-02T00:36:01;97008.34;;;7.94;100.00
6094;BME280;19964;42.060;24.700;2024-03-02T00:38:29;96999.13;;;7.87;100.00
6094;BME280;19964;42.060;24.700;2024-03-02T00:40:58;96992.34;;;7.74;100.00
6094;BME280;19964;42.060;24.700;2024-03-02T00:43:56;96985.25;;;7.88;100.00
6094;BME280;19964;42.060;24.700;2024-03-02T00:46:24;96972.03;;;7.96;100.00
6094;BME280;19964;42.060;24.700;2024-03-02T00:48:53;96974.75;;;8.01;100.00
6094;BME280;19964;42.060;24.700;2024-03-02T00:51:21;96978.28;;;7.88;100.00
6094;BME280;19964;42.060;24.700;2024-03-02T00:53:49;96965.53;;;7.93;100.00
6094;BME280;19964;42.060;24.700;2024-03-02T00:56:18;96971.25;;;7.95;100.00
6094;BME280;19964;42.060;24.700;2024-03-02T00:58:45;96973.03;;;7.95;100.00
6094;BME280;19964;42.060;24.700;2024-03-02T01:01:14;96959.78;;;7.80;100.00
6094;BME280;19964;42.060;24.700;2024-03-02T01:03:41;96956.06;;;7.76;100.00
6094;BME280;19964;42.060;24.700;2024-03-02T01:06:08;96958.84;;;7.74;100.00
6094;BME280;19964;42.060;24.700;2024-03-02T01:08:35;96957.16;;;7.68;100.00
6094;BME280;19964;42.060;24.700;2024-03-02T01:11:03;96949.94;;;7.59;100.00
6094;BME280;19964;42.060;24.700;2024-03-02T01:13:30;96945.50;;;7.36;100.00
6094;BME280;19964;42.060;24.700;2024-03-02T01:15:58;96911.56;;;7.09;100.00
6094;BME280;19964;42.060;24.700;2024-03-02T01:18:26;96929.53;;;7.28;100.00
6094;BME280;19964;42.060;24.700;2024-03-02T01:20:53;96902.91;;;7.04;100.00
6094;BME280;19964;42.060;24.700;2024-03-02T01:23:21;96829.31;;;6.67;100.00
6094;BME280;19964;42.060;24.700;2024-03-02T01:25:48;96887.88;;;6.83;100.00
6094;BME280;19964;42.060;24.700;2024-03-02T01:28:15;96916.81;;;7.14;100.00
6094;BME280;19964;42.060;24.700;2024-03-02T01:30:42;96894.47;;;6.97;100.00
6094;BME280;19964;42.060;24.700;2024-03-02T01:33:09;96905.84;;;7.07;100.00
6094;BME280;19964;42.060;24.700;2024-03-02T01:35:37;96904.63;;;6.92;100.00
6094;BME280;19964;42.060;24.700;2024-03-02T01:38:04;96883.97;;;6.80;100.00
6094;BME280;19964;42.060;24.700;2024-03-02T01:40:33;96892.06;;;6.66;100.00
6094;BME280;19964;42.060;24.700;2024-03-02T01:43:00;96900.47;;;6.91;100.00
6094;BME280;19964;42.060;24.700;2024-03-02T01:45:28;96841.94;;;6.32;100.00
6094;BME280;19964;42.060;24.700;2024-03-02T01:47:55;96897.56;;;6.69;100.00
6094;BME280;19964;42.060;24.700;2024-03-02T01:50:26;96895.13;;;6.74;100.00
6094;BME280;19964;42.060;24.700;2024-03-02T01:52:55;96882.56;;;6.66;100.00
6094;BME280;19964;42.060;24.700;2024-03-02T01:55:23;96884.25;;;6.54;100.00
6094;BME280;19964;42.060;24.700;2024-03-02T01:57:50;96884.69;;;6.69;100.00
6094;BME280;19964;42.060;24.700;2024-03-02T02:00:18;96883.34;;;6.67;100.00
6094;BME280;19964;42.060;24.700;2024-03-02T02:02:45;96879.63;;;6.63;100.00
6094;BME280;19964;42.060;24.700;2024-03-02T02:05:12;96874.38;;;6.69;100.00
6094;BME280;19964;42.060;24.700;2024-03-02T02:07:40;96861.75;;;6.50;100.00
6094;BME280;19964;42.060;24.700;2024-03-02T02:10:10;96872.53;;;6.58;100.00
6094;BME280;19964;42.060;24.700;2024-03-02T02:12:37;96860.59;;;6.46;100.00
6094;BME280;19964;42.060;24.700;2024-03-02T02:15:21;96861.31;;;6.53;100.00
6094;BME280;19964;42.060;24.700;2024-03-02T02:17:48;96859.09;;;6.56;100.00
6094;BME280;19964;42.060;24.700;2024-03-02T02:20:15;96854.47;;;6.47;100.00
6094;BME280;19964;42.060;24.700;2024-03-02T02:22:57;96860.88;;;6.56;100.00
6094;BME280;19964;42.060;24.700;2024-03-02T02:25:24;96827.38;;;6.26;100.00
6094;BME280;19964;42.060;24.700;2024-03-02T02:27:52;96853.53;;;6.41;100.00
6094;BME280;19964;42.060;24.700;2024-03-02T02:30:19;96836.59;;;6.34;100.00
6094;BME280;19964;42.060;24.700;2024-03-02T02:32:47;96856.34;;;6.40;100.00
6094;BME280;19964;42.060;24.700;2024-03-02T02:35:14;96851.66;;;6.48;100.00
6094;BME280;19964;42.060;24.700;2024-03-02T02:37:41;96849.03;;;6.55;100.00
6094;BME280;19964;42.060;24.700;2024-03-02T02:40:11;96844.16;;;6.47;100.00
6094;BME280;19964;42.060;24.700;2024-03-02T02:42:38;96835.75;;;6.40;100.00
6094;BME280;19964;42.060;24.700;2024-03-02T02:45:06;96850.88;;;6.48;100.00
6094;BME280;19964;42.060;24.700;2024-03-02T02:47:33;96835.94;;;6.38;100.00
6094;BME280;19964;42.060;24.700;2024-03-02T02:50:01;96847.81;;;6.39;100.00
6094;BME280;19964;42.060;24.700;2024-03-02T02:52:31;96760.03;;;5.75;100.00
6094;BME280;19964;42.060;24.700;2024-03-02T02:55:02;96840.59;;;6.48;100.00
6094;BME280;19964;42.060;24.700;2024-03-02T02:57:31;96840.00;;;6.46;100.00
6094;BME280;19964;42.060;24.700;2024-03-02T03:00:02;96837.25;;;6.47;100.00
6094;BME280;19964;42.060;24.700;2024-03-02T03:02:36;96840.44;;;6.43;100.00
6094;BME280;19964;42.060;24.700;2024-03-02T03:05:04;96838.09;;;6.41;100.00
6094;BME280;19964;42.060;24.700;2024-03-02T03:07:31;96834.00;;;6.52;100.00
6094;BME280;19964;42.060;24.700;2024-03-02T03:09:59;96839.94;;;6.34;100.00
6094;BME280;19964;42.060;24.700;2024-03-02T03:12:25;96830.22;;;6.36;100.00
6094;BME280;19964;42.060;24.700;2024-03-02T03:14:53;96836.59;;;6.52;100.00
6094;BME280;19964;42.060;24.700;2024-03-02T03:17:21;96841.38;;;6.48;100.00
6094;BME280;19964;42.060;24.700;2024-03-02T03:19:48;96830.97;;;6.43;100.00
6094;BME280;19964;42.060;24.700;2024-03-02T03:22:15;96842.50;;;6.34;100.00
6094;BME280;19964;42.060;24.700;2024-03-02T03:24:42;96835.59;;;6.35;100.00
6094;BME280;19964;42.060;24.700;2024-03-02T03:27:10;96813.16;;;6.23;100.00
6094;BME280;19964;42.060;24.700;2024-03-02T03:29:37;96807.09;;;6.18;100.00
6094;BME280;19964;42.060;24.700;2024-03-02T03:32:06;96829.03;;;6.39;100.00
6094;BME280;19964;42.060;24.700;2024-03-02T03:34:33;96828.59;;;6.42;100.00
6094;BME280;19964;42.060;24.700;2024-03-02T03:37:00;96824.88;;;6.56;100.00
6094;BME280;19964;42.060;24.700;2024-03-02T03:39:28;96828.44;;;6.55;100.00
6094;BME280;19964;42.060;24.700;2024-03-02T03:41:55;96816.00;;;6.52;100.00
6094;BME280;19964;42.060;24.700;2024-03-02T03:44:22;96794.38;;;6.41;100.00
6094;BME280;19964;42.060;24.700;2024-03-02T03:46:49;96821.44;;;6.62;100.00
6094;BME280;19964;42.060;24.700;2024-03-02T03:49:17;96816.69;;;6.77;100.00
6094;BME280;19964;42.060;24.700;2024-03-02T03:51:44;96813.41;;;6.88;100.00
6094;BME280;19964;42.060;24.700;2024-03-02T03:54:11;96815.41;;;6.68;100.00
6094;BME280;19964;42.060;24.700;2024-03-02T03:56:38;96816.06;;;6.63;100.00
6094;BME280;19964;42.060;24.700;2024-03-02T03:59:05;96820.91;;;6.71;100.00
6094;BME280;19964;42.060;24.700;2024-03-02T04:01:32;96822.06;;;6.75;100.00
6094;BME280;19964;42.060;24.700;2024-03-02T04:03:59;96813.50;;;6.63;100.00
6094;BME280;19964;42.060;24.700;2024-03-02T04:06:28;96820.16;;;6.71;100.00
6094;BME280;19964;42.060;24.700;2024-03-02T04:08:55;96824.91;;;6.67;100.00
6094;BME280;19964;42.060;24.700;2024-03-02T04:11:22;96820.22;;;6.64;100.00
6094;BME280;19964;42.060;24.700;2024-03-02T04:13:49;96820.00;;;6.66;100.00
6094;BME280;19964;42.060;24.700;2024-03-02T04:16:16;96821.53;;;6.55;100.00
6094;BME280;19964;42.060;24.700;2024-03-02T04:18:43;96826.28;;;6.52;100.00
6094;BME280;19964;42.060;24.700;2024-03-02T04:21:10;96832.22;;;6.52;100.00
6094;BME280;19964;42.060;24.700;2024-03-02T04:23:39;96815.28;;;6.26;100.00
6094;BME280;19964;42.060;24.700;2024-03-02T04:26:06;96829.66;;;6.34;100.00
6094;BME280;19964;42.060;24.700;2024-03-02T04:28:33;96826.16;;;6.28;100.00
6094;BME280;19964;42.060;24.700;2024-03-02T04:31:00;96832.59;;;6.38;100.00
6094;BME280;19964;42.060;24.700;2024-03-02T04:33:27;96835.53;;;6.41;100.00
6094;BME280;19964;42.060;24.700;2024-03-02T04:35:54;96827.03;;;6.41;100.00
6094;BME280;19964;42.060;24.700;2024-03-02T04:38:21;96829.94;;;6.44;100.00
6094;BME280;19964;42.060;24.700;2024-03-02T04:40:49;96807.66;;;6.20;100.00
6094;BME280;19964;42.060;24.700;2024-03-02T04:43:16;96822.16;;;6.32;100.00
6094;BME280;19964;42.060;24.700;2024-03-02T04:45:44;96817.38;;;6.36;100.00
6094;BME280;19964;42.060;24.700;2024-03-02T04:48:11;96826.03;;;6.42;100.00
6094;BME280;19964;42.060;24.700;2024-03-02T04:50:38;96822.31;;;6.38;100.00
6094;BME280;19964;42.060;24.700;2024-03-02T04:53:05;96812.16;;;6.43;100.00
6094;BME280;19964;42.060;24.700;2024-03-02T04:55:33;96815.75;;;6.42;100.00
6094;BME280;19964;42.060;24.700;2024-03-02T04:58:30;96816.44;;;6.49;100.00
6094;BME280;19964;42.060;24.700;2024-03-02T05:00:57;96817.09;;;6.44;100.00
6094;BME280;19964;42.060;24.700;2024-03-02T05:03:24;96823.59;;;6.47;100.00
6094;BME280;19964;42.060;24.700;2024-03-02T05:05:51;96820.72;;;6.55;100.00
6094;BME280;19964;42.060;24.700;2024-03-02T05:08:18;96813.72;;;6.62;100.00
6094;BME280;19964;42.060;24.700;2024-03-02T05:10:45;96822.63;;;6.77;100.00
6094;BME280;19964;42.060;24.700;2024-03-02T05:13:13;96818.84;;;6.80;100.00
6094;BME280;19964;42.060;24.700;2024-03-02T05:15:41;96816.63;;;6.65;100.00
6094;BME280;19964;42.060;24.700;2024-03-02T05:18:09;96803.41;;;6.62;100.00
6094;BME280;19964;42.060;24.700;2024-03-02T05:20:36;96828.63;;;6.71;100.00
6094;BME280;19964;42.060;24.700;2024-03-02T05:23:03;96832.88;;;6.66;100.00
6094;BME280;19964;42.060;24.700;2024-03-02T05:25:30;96822.56;;;6.66;100.00
6094;BME280;19964;42.060;24.700;2024-03-02T05:27:57;96837.38;;;6.70;100.00
6094;BME280;19964;42.060;24.700;2024-03-02T05:30:24;96842.81;;;6.62;100.00
6094;BME280;19964;42.060;24.700;2024-03-02T05:32:53;96836.44;;;6.65;100.00
6094;BME280;19964;42.060;24.700;2024-03-02T05:35:20;96845.16;;;6.64;100.00
6094;BME280;19964;42.060;24.700;2024-03-02T05:37:47;96850.25;;;6.70;100.00
6094;BME280;19964;42.060;24.700;2024-03-02T05:40:14;96846.75;;;6.65;100.00
6094;BME280;19964;42.060;24.700;2024-03-02T05:42:41;96852.47;;;6.67;100.00
6094;BME280;19964;42.060;24.700;2024-03-02T05:45:08;96835.09;;;6.44;100.00
6094;BME280;19964;42.060;24.700;2024-03-02T05:47:35;96851.31;;;6.45;100.00
6094;BME280;19964;42.060;24.700;2024-03-02T05:50:06;96846.38;;;6.61;100.00
6094;BME280;19964;42.060;24.700;2024-03-02T05:52:33;96833.94;;;6.58;100.00
6094;BME280;19964;42.060;24.700;2024-03-02T05:55:00;96852.25;;;6.68;100.00
6094;BME280;19964;42.060;24.700;2024-03-02T05:57:27;96853.31;;;6.61;100.00
6094;BME280;19964;42.060;24.700;2024-03-02T06:00:11;96850.25;;;6.70;100.00
6094;BME280;19964;42.060;24.700;2024-03-02T06:02:39;96846.66;;;6.71;100.00
6094;BME280;19964;42.060;24.700;2024-03-02T06:05:07;96854.47;;;6.65;100.00
6094;BME280;19964;42.060;24.700;2024-03-02T06:07:34;96852.38;;;6.73;100.00
6094;BME280;19964;42.060;24.700;2024-03-02T06:10:01;96846.84;;;6.88;100.00
6094;BME280;19964;42.060;24.700;2024-03-02T06:12:30;96848.91;;;6.97;100.00
6094;BME280;19964;42.060;24.700;2024-03-02T06:14:57;96843.50;;;7.17;100.00
6094;BME280;19964;42.060;24.700;2024-03-02T06:17:24;96842.06;;;7.21;100.00
6094;BME280;19964;42.060;24.700;2024-03-02T06:19:51;96833.56;;;7.32;100.00
6094;BME280;19964;42.060;24.700;2024-03-02T06:22:20;96853.66;;;7.53;100.00
6094;BME280;19964;42.060;24.700;2024-03-02T06:24:48;96855.59;;;7.58;100.00
6094;BME280;19964;42.060;24.700;2024-03-02T06:27:15;96851.56;;;7.50;100.00
6094;BME280;19964;42.060;24.700;2024-03-02T06:29:42;96857.84;;;7.54;100.00
6094;BME280;19964;42.060;24.700;2024-03-02T06:32:09;96863.13;;;7.30;100.00
6094;BME280;19964;42.060;24.700;2024-03-02T06:34:36;96877.59;;;7.31;100.00
6094;BME280;19964;42.060;24.700;2024-03-02T06:37:03;96879.47;;;7.24;100.00
6094;BME280;19964;42.060;24.700;2024-03-02T06:39:32;96877.91;;;7.22;100.00
6094;BME280;19964;42.060;24.700;2024-03-02T06:41:59;96880.34;;;7.17;100.00
6094;BME280;19964;42.060;24.700;2024-03-02T06:44:26;96887.28;;;7.17;100.00
6094;BME280;19964;42.060;24.700;2024-03-02T06:46:53;96880.81;;;7.26;100.00
6094;BME280;19964;42.060;24.700;2024-03-02T06:49:20;96885.81;;;7.39;100.00
6094;BME280;19964;42.060;24.700;2024-03-02T06:51:47;96879.09;;;7.50;100.00
6094;BME280;19964;42.060;24.700;2024-03-02T06:54:15;96888.91;;;7.71;100.00
6094;BME280;19964;42.060;24.700;2024-03-02T06:56:43;96882.63;;;7.78;100.00
6094;BME280;19964;42.060;24.700;2024-03-02T06:59:10;96888.50;;;7.85;100.00
6094;BME280;19964;42.060;24.700;2024-03-02T07:01:37;96901.97;;;8.10;100.00
6094;BME280;19964;42.060;24.700;2024-03-02T07:04:04;96904.22;;;8.07;100.00
6094;BME280;19964;42.060;24.700;2024-03-02T07:06:32;96916.63;;;7.87;100.00
6094;BME280;19964;42.060;24.700;2024-03-02T07:08:59;96924.84;;;7.95;100.00
6094;BME280;19964;42.060;24.700;2024-03-02T07:11:26;96921.56;;;8.00;100.00
6094;BME280;19964;42.060;24.700;2024-03-02T07:13:54;96931.97;;;7.82;100.00
6094;BME280;19964;42.060;24.700;2024-03-02T07:16:21;96929.16;;;7.72;100.00
6094;BME280;19964;42.060;24.700;2024-03-02T07:18:54;96924.81;;;7.43;100.00
6094;BME280;19964;42.060;24.700;2024-03-02T07:21:22;96926.28;;;7.50;100.00
6094;BME280;19964;42.060;24.700;2024-03-02T07:23:49;96906.47;;;7.51;100.00
6094;BME280;19964;42.060;24.700;2024-03-02T07:26:16;96928.28;;;7.78;100.00
6094;BME280;19964;42.060;24.700;2024-03-02T07:28:45;96921.13;;;7.91;100.00
6094;BME280;19964;42.060;24.700;2024-03-02T07:31:14;96931.34;;;8.09;100.00
6094;BME280;19964;42.060;24.700;2024-03-02T07:33:44;96939.78;;;8.17;100.00
6094;BME280;19964;42.060;24.700;2024-03-02T07:36:11;96929.16;;;8.25;100.00
6094;BME280;19964;42.060;24.700;2024-03-02T07:38:38;96948.41;;;8.10;100.00
6094;BME280;19964;42.060;24.700;2024-03-02T07:41:06;96947.84;;;8.20;100.00
6094;BME280;19964;42.060;24.700;2024-03-02T07:43:33;96955.84;;;8.30;100.00
6094;BME280;19964;42.060;24.700;2024-03-02T07:46:00;96944.50;;;8.43;100.00
6094;BME280;19964;42.060;24.700;2024-03-02T07:48:30;96939.47;;;8.48;100.00
6094;BME280;19964;42.060;24.700;2024-03-02T07:50:57;96964.06;;;8.73;100.00
6094;BME280;19964;42.060;24.700;2024-03-02T07:53:24;96973.81;;;8.83;100.00
6094;BME280;19964;42.060;24.700;2024-03-02T07:55:51;96969.63;;;8.93;100.00
6094;BME280;19964;42.060;24.700;2024-03-02T07:58:18;96974.91;;;8.98;100.00
6094;BME280;19964;42.060;24.700;2024-03-02T08:00:45;96983.56;;;9.04;100.00
6094;BME280;19964;42.060;24.700;2024-03-02T08:03:13;96984.09;;;9.18;100.00
6094;BME280;19964;42.060;24.700;2024-03-02T08:05:41;96986.00;;;9.22;100.00
6094;BME280;19964;42.060;24.700;2024-03-02T08:08:08;96993.19;;;9.20;100.00
6094;BME280;19964;42.060;24.700;2024-03-02T08:10:37;96999.53;;;9.01;100.00
6094;BME280;19964;42.060;24.700;2024-03-02T08:13:04;97004.56;;;8.73;100.00
6094;BME280;19964;42.060;24.700;2024-03-02T08:15:31;96998.72;;;8.54;100.00
6094;BME280;19964;42.060;24.700;2024-03-02T08:17:58;96994.25;;;8.73;100.00
6094;BME280;19964;42.060;24.700;2024-03-02T08:20:25;96990.53;;;8.34;100.00
6094;BME280;19964;42.060;24.700;2024-03-02T08:22:54;96980.94;;;8.23;100.00
6094;BME280;19964;42.060;24.700;2024-03-02T08:25:21;96963.94;;;8.45;100.00
6094;BME280;19964;42.060;24.700;2024-03-02T08:27:48;96959.22;;;8.65;100.00
6094;BME280;19964;42.060;24.700;2024-03-02T08:30:16;96951.16;;;8.62;100.00
6094;BME280;19964;42.060;24.700;2024-03-02T08:32:43;96924.53;;;8.73;100.00
6094;BME280;19964;42.060;24.700;2024-03-02T08:35:10;96903.13;;;8.38;100.00
6094;BME280;19964;42.060;24.700;2024-03-02T08:37:39;96935.53;;;8.34;100.00
6094;BME280;19964;42.060;24.700;2024-03-02T08:40:08;96960.28;;;8.11;100.00
6094;BME280;19964;42.060;24.700;2024-03-02T08:42:36;96957.34;;;7.96;100.00
6094;BME280;19964;42.060;24.700;2024-03-02T08:45:03;96937.59;;;8.02;100.00
6094;BME280;19964;42.060;24.700;2024-03-02T08:47:31;96939.56;;;7.77;100.00
6094;BME280;19964;42.060;24.700;2024-03-02T08:49:58;96937.13;;;7.82;100.00
6094;BME280;19964;42.060;24.700;2024-03-02T08:52:26;96936.06;;;7.60;100.00
6094;BME280;19964;42.060;24.700;2024-03-02T08:54:53;96850.22;;;6.88;100.00
6094;BME280;19964;42.060;24.700;2024-03-02T08:57:21;96936.13;;;7.53;100.00
6094;BME280;19964;42.060;24.700;2024-03-02T08:59:48;96932.22;;;7.51;100.00
6094;BME280;19964;42.060;24.700;2024-03-02T09:02:15;96928.91;;;7.62;100.00
6094;BME280;19964;42.060;24.700;2024-03-02T09:04:42;96925.44;;;7.68;100.00
6094;BME280;19964;42.060;24.700;2024-03-02T09:07:09;96932.06;;;7.75;100.00
6094;BME280;19964;42.060;24.700;2024-03-02T09:09:36;96935.56;;;7.92;100.00
6094;BME280;19964;42.060;24.700;2024-03-02T09:12:04;96945.25;;;8.08;100.00
6094;BME280;19964;42.060;24.700;2024-03-02T09:14:33;96937.03;;;8.00;100.00
6094;BME280;19964;42.060;24.700;2024-03-02T09:17:02;96944.19;;;7.86;100.00
6094;BME280;19964;42.060;24.700;2024-03-02T09:19:29;96885.06;;;7.50;100.00
6094;BME280;19964;42.060;24.700;2024-03-02T09:21:56;96952.81;;;7.80;100.00
6094;BME280;19964;42.060;24.700;2024-03-02T09:24:24;96950.88;;;7.64;100.00
6094;BME280;19964;42.060;24.700;2024-03-02T09:26:51;96965.09;;;7.67;100.00
6094;BME280;19964;42.060;24.700;2024-03-02T09:29:18;96945.03;;;7.69;100.00
6094;BME280;19964;42.060;24.700;2024-03-02T09:31:47;96956.97;;;7.81;100.00
6094;BME280;19964;42.060;24.700;2024-03-02T09:34:15;96961.94;;;7.94;100.00
6094;BME280;19964;42.060;24.700;2024-03-02T09:36:42;96939.91;;;7.80;100.00
6094;BME280;19964;42.060;24.700;2024-03-02T09:39:09;96951.38;;;7.96;100.00
6094;BME280;19964;42.060;24.700;2024-03-02T09:41:36;96945.88;;;7.92;100.00
6094;BME280;19964;42.060;24.700;2024-03-02T09:44:04;96952.88;;;8.03;100.00
6094;BME280;19964;42.060;24.700;2024-03-02T09:46:31;96935.53;;;7.69;100.00
6094;BME280;19964;42.060;24.700;2024-03-02T09:49:00;96953.41;;;7.94;100.00
6094;BME280;19964;42.060;24.700;2024-03-02T09:51:27;96952.03;;;7.80;100.00
6094;BME280;19964;42.060;24.700;2024-03-02T09:53:55;96958.69;;;7.87;100.00
6094;BME280;19964;42.060;24.700;2024-03-02T09:56:22;96964.28;;;7.96;100.00
6094;BME280;19964;42.060;24.700;2024-03-02T09:58:49;96954.81;;;7.78;100.00
6094;BME280;19964;42.060;24.700;2024-03-02T10:01:17;96958.69;;;7.87;100.00
6094;BME280;19964;42.060;24.700;2024-03-02T10:03:45;96958.22;;;7.90;100.00
6094;BME280;19964;42.060;24.700;2024-03-02T10:06:21;96961.72;;;8.07;100.00
6094;BME280;19964;42.060;24.700;2024-03-02T10:08:48;96949.59;;;7.96;100.00
6094;BME280;19964;42.060;24.700;2024-03-02T10:11:33;96960.06;;;8.01;100.00
6094;BME280;19964;42.060;24.700;2024-03-02T10:14:06;96925.03;;;7.94;100.00
6094;BME280;19964;42.060;24.700;2024-03-02T10:16:35;96962.94;;;8.35;100.00
6094;BME280;19964;42.060;24.700;2024-03-02T10:19:16;96959.66;;;8.51;100.00
6094;BME280;19964;42.060;24.700;2024-03-02T10:21:46;96968.31;;;8.56;100.00
6094;BME280;19964;42.060;24.700;2024-03-02T10:24:13;96981.00;;;8.69;100.00
6094;BME280;19964;42.060;24.700;2024-03-02T10:26:40;96988.28;;;8.61;100.00
6094;BME280;19964;42.060;24.700;2024-03-02T10:29:08;96989.75;;;8.80;100.00
6094;BME280;19964;42.060;24.700;2024-03-02T10:31:37;96991.75;;;8.89;100.00
6094;BME280;19964;42.060;24.700;2024-03-02T10:34:05;96926.25;;;8.33;100.00
6094;BME280;19964;42.060;24.700;2024-03-02T10:36:32;96999.50;;;8.89;100.00
6094;BME280;19964;42.060;24.700;2024-03-02T10:39:03;97004.22;;;9.04;100.00
6094;BME280;19964;42.060;24.700;2024-03-02T10:41:33;96996.38;;;9.11;100.00
6094;BME280;19964;42.060;24.700;2024-03-02T10:44:02;97000.19;;;8.96;100.00
6094;BME280;19964;42.060;24.700;2024-03-02T10:46:30;96990.44;;;8.87;100.00
6094;BME280;19964;42.060;24.700;2024-03-02T10:48:58;96990.06;;;9.07;100.00
6094;BME280;19964;42.060;24.700;2024-03-02T10:51:26;96988.00;;;9.32;100.00
6094;BME280;19964;42.060;24.700;2024-03-02T10:53:57;96990.53;;;9.43;100.00
6094;BME280;19964;42.060;24.700;2024-03-02T10:56:28;96970.34;;;9.29;100.00
6094;BME280;19964;42.060;24.700;2024-03-02T10:59:01;96992.31;;;9.54;100.00
6094;BME280;19964;42.060;24.700;2024-03-02T11:01:29;96991.88;;;9.74;100.00
6094;BME280;19964;42.060;24.700;2024-03-02T11:03:58;96995.66;;;9.83;100.00
6094;BME280;19964;42.060;24.700;2024-03-02T11:06:28;97000.94;;;9.60;100.00
6094;BME280;19964;42.060;24.700;2024-03-02T11:09:00;97006.31;;;9.30;100.00
6094;BME280;19964;42.060;24.700;2024-03-02T11:11:36;97007.69;;;9.10;100.00
6094;BME280;19964;42.060;24.700;2024-03-02T11:14:04;96989.50;;;9.05;100.00
6094;BME280;19964;42.060;24.700;2024-03-02T11:16:36;96996.66;;;9.26;100.00
6094;BME280;19964;42.060;24.700;2024-03-02T11:19:06;96989.22;;;9.29;100.00
6094;BME280;19964;42.060;24.700;2024-03-02T11:21:34;96980.94;;;9.16;100.00
6094;BME280;19964;42.060;24.700;2024-03-02T11:24:28;96977.91;;;9.30;100.00
6094;BME280;19964;42.060;24.700;2024-03-02T11:27:00;96984.34;;;9.44;100.00
6094;BME280;19964;42.060;24.700;2024-03-02T11:29:48;96980.53;;;9.47;100.00
6094;BME280;19964;42.060;24.700;2024-03-02T11:32:16;96969.50;;;9.51;100.00
6094;BME280;19964;42.060;24.700;2024-03-02T11:34:45;96978.44;;;9.60;100.00
6094;BME280;19964;42.060;24.700;2024-03-02T11:37:14;96977.31;;;9.40;100.00
6094;BME280;19964;42.060;24.700;2024-03-02T11:39:42;96985.13;;;9.45;100.00
6094;BME280;19964;42.060;24.700;2024-03-02T11:42:12;96986.72;;;9.46;100.00
6094;BME280;19964;42.060;24.700;2024-03-02T11:44:42;96983.50;;;9.67;100.00
6094;BME280;19964;42.060;24.700;2024-03-02T11:47:12;96989.25;;;9.85;100.00
6094;BME280;19964;42.060;24.700;2024-03-02T11:49:43;96987.22;;;9.87;100.00
6094;BME280;19964;42.060;24.700;2024-03-02T11:52:12;96980.31;;;9.93;100.00
6094;BME280;19964;42.060;24.700;2024-03-02T11:54:41;96997.97;;;9.96;100.00
6094;BME280;19964;42.060;24.700;2024-03-02T11:57:14;96990.06;;;10.03;100.00
6094;BME280;19964;42.060;24.700;2024-03-02T11:59:42;96979.66;;;9.69;100.00
6094;BME280;19964;42.060;24.700;2024-03-02T12:02:16;96967.56;;;9.58;100.00
6094;BME280;19964;42.060;24.700;2024-03-02T12:04:44;96969.94;;;9.48;100.00
6094;BME280;19964;42.060;24.700;2024-03-02T12:07:12;96963.53;;;9.51;100.00
6094;BME280;19964;42.060;24.700;2024-03-02T12:09:39;96969.09;;;9.71;100.00
6094;BME280;19964;42.060;24.700;2024-03-02T12:12:08;96974.09;;;9.77;100.00
6094;BME280;19964;42.060;24.700;2024-03-02T12:14:37;96963.63;;;9.84;100.00
6094;BME280;19964;42.060;24.700;2024-03-02T12:17:05;96962.03;;;9.83;100.00
6094;BME280;19964;42.060;24.700;2024-03-02T12:19:33;96947.97;;;9.62;100.00
6094;BME280;19964;42.060;24.700;2024-03-02T12:22:00;96953.78;;;9.69;100.00
6094;BME280;19964;42.060;24.700;2024-03-02T12:24:28;96967.44;;;9.65;100.00
6094;BME280;19964;42.060;24.700;2024-03-02T12:26:56;96960.47;;;9.54;100.00
6094;BME280;19964;42.060;24.700;2024-03-02T12:29:24;96963.53;;;9.79;100.00
6094;BME280;19964;42.060;24.700;2024-03-02T12:31:52;96955.38;;;9.70;100.00
6094;BME280;19964;42.060;24.700;2024-03-02T12:34:20;96937.19;;;9.65;100.00
6094;BME280;19964;42.060;24.700;2024-03-02T12:36:47;96943.13;;;9.66;100.00
6094;BME280;19964;42.060;24.700;2024-03-02T12:39:18;96946.31;;;9.56;100.00
6094;BME280;19964;42.060;24.700;2024-03-02T12:41:46;96942.38;;;9.54;100.00
6094;BME280;19964;42.060;24.700;2024-03-02T12:44:16;96937.59;;;9.46;100.00
6094;BME280;19964;42.060;24.700;2024-03-02T12:46:43;96944.81;;;9.44;100.00
6094;BME280;19964;42.060;24.700;2024-03-02T12:49:12;96943.97;;;9.55;100.00
6094;BME280;19964;42.060;24.700;2024-03-02T12:51:42;96938.72;;;9.38;100.00
6094;BME280;19964;42.060;24.700;2024-03-02T12:54:10;96942.94;;;9.28;100.00
6094;BME280;19964;42.060;24.700;2024-03-02T12:56:37;96939.41;;;9.45;100.00
6094;BME280;19964;42.060;24.700;2024-03-02T12:59:05;96940.31;;;9.39;100.00
6094;BME280;19964;42.060;24.700;2024-03-02T13:01:32;96942.78;;;9.46;100.00
6094;BME280;19964;42.060;24.700;2024-03-02T13:04:00;96934.72;;;9.31;100.00
6094;BME280;19964;42.060;24.700;2024-03-02T13:06:28;96935.50;;;9.31;100.00